createdAt,value
2018-12-27T00:01:21.541Z,100.00
2018-12-27T00:03:52.952Z,100.00
2018-12-27T00:06:24.339Z,100.00
2018-12-27T00:08:55.913Z,100.00
2018-12-27T00:11:27.322Z,100.00
2018-12-27T00:13:58.769Z,100.00
2018-12-27T00:16:30.187Z,100.00
2018-12-27T00:19:01.636Z,100.00
2018-12-27T00:21:33.035Z,100.00
2018-12-27T00:24:04.634Z,100.00
2018-12-27T00:26:36.094Z,100.00
2018-12-27T00:29:07.684Z,100.00
2018-12-27T00:31:39.342Z,100.00
2018-12-27T00:34:10.895Z,100.00
2018-12-27T00:36:42.704Z,100.00
2018-12-27T00:39:14.324Z,100.00
2018-12-27T00:41:46.056Z,100.00
2018-12-27T00:44:17.765Z,100.00
2018-12-27T00:46:49.414Z,100.00
2018-12-27T00:49:21.132Z,100.00
2018-12-27T00:51:52.620Z,100.00
2018-12-27T00:54:24.222Z,100.00
2018-12-27T00:56:55.774Z,100.00
2018-12-27T00:59:27.355Z,100.00
2018-12-27T01:01:59.085Z,100.00
2018-12-27T01:04:30.726Z,100.00
2018-12-27T01:07:02.352Z,100.00
2018-12-27T01:09:34.012Z,100.00
2018-12-27T01:12:05.688Z,100.00
2018-12-27T01:14:37.407Z,100.00
2018-12-27T01:17:08.895Z,100.00
2018-12-27T01:19:40.502Z,100.00
2018-12-27T01:22:12.234Z,100.00
2018-12-27T01:24:43.745Z,100.00
2018-12-27T01:27:17.971Z,100.00
2018-12-27T01:29:49.635Z,100.00
2018-12-27T01:32:21.222Z,100.00
2018-12-27T01:34:53.012Z,100.00
2018-12-27T01:37:24.597Z,100.00
2018-12-27T01:39:56.394Z,100.00
2018-12-27T01:42:27.984Z,100.00
2018-12-27T01:44:59.822Z,100.00
2018-12-27T01:47:31.342Z,100.00
2018-12-27T01:50:02.942Z,100.00
2018-12-27T01:52:34.639Z,100.00
2018-12-27T01:55:06.535Z,100.00
2018-12-27T01:57:38.072Z,100.00
2018-12-27T02:00:09.553Z,100.00
2018-12-27T02:02:41.154Z,100.00
2018-12-27T02:05:12.639Z,100.00
2018-12-27T02:07:44.294Z,100.00
2018-12-27T02:10:15.755Z,100.00
2018-12-27T02:12:47.456Z,100.00
2018-12-27T02:15:18.916Z,100.00
2018-12-27T02:17:50.523Z,100.00
2018-12-27T02:20:22.115Z,100.00
2018-12-27T02:22:53.733Z,100.00
2018-12-27T02:25:25.329Z,100.00
2018-12-27T02:27:57.004Z,100.00
2018-12-27T02:30:28.706Z,100.00
2018-12-27T02:33:00.226Z,100.00
2018-12-27T02:35:31.876Z,100.00
2018-12-27T02:38:03.414Z,100.00
2018-12-27T02:40:34.856Z,100.00
2018-12-27T02:43:07.547Z,100.00
2018-12-27T02:45:39.150Z,100.00
2018-12-27T02:48:10.666Z,100.00
2018-12-27T02:50:42.084Z,100.00
2018-12-27T02:53:13.682Z,100.00
2018-12-27T02:55:45.145Z,100.00
2018-12-27T02:58:16.846Z,100.00
2018-12-27T03:00:48.416Z,100.00
2018-12-27T03:03:20.070Z,100.00
2018-12-27T03:05:51.614Z,100.00
2018-12-27T03:08:22.996Z,100.00
2018-12-27T03:10:54.566Z,100.00
2018-12-27T03:13:26.097Z,100.00
2018-12-27T03:15:57.616Z,100.00
2018-12-27T03:18:29.142Z,100.00
2018-12-27T03:21:00.826Z,100.00
2018-12-27T03:23:32.369Z,100.00
2018-12-27T03:26:03.912Z,100.00
2018-12-27T03:28:35.396Z,100.00
2018-12-27T03:31:07.047Z,100.00
2018-12-27T03:33:38.687Z,100.00
2018-12-27T03:36:10.445Z,100.00
2018-12-27T03:38:41.973Z,100.00
2018-12-27T03:41:13.385Z,100.00
2018-12-27T03:43:44.879Z,100.00
2018-12-27T03:46:16.465Z,100.00
2018-12-27T03:48:48.333Z,100.00
2018-12-27T03:51:19.989Z,100.00
2018-12-27T03:53:51.758Z,100.00
2018-12-27T03:56:23.358Z,100.00
2018-12-27T03:58:55.000Z,100.00
2018-12-27T04:01:26.387Z,100.00
2018-12-27T04:04:01.516Z,100.00
2018-12-27T04:06:31.194Z,100.00
2018-12-27T04:09:02.892Z,100.00
2018-12-27T04:11:34.458Z,100.00
2018-12-27T04:14:06.057Z,100.00
2018-12-27T04:16:37.666Z,100.00
2018-12-27T04:19:09.171Z,100.00
2018-12-27T04:21:40.560Z,100.00
2018-12-27T04:24:12.366Z,100.00
2018-12-27T04:26:43.847Z,100.00
2018-12-27T04:29:15.359Z,100.00
2018-12-27T04:31:47.659Z,100.00
2018-12-27T04:34:19.670Z,100.00
2018-12-27T04:36:54.315Z,100.00
2018-12-27T04:39:25.739Z,100.00
2018-12-27T04:41:57.150Z,100.00
2018-12-27T04:44:28.778Z,100.00
2018-12-27T04:47:00.116Z,100.00
2018-12-27T04:49:33.779Z,100.00
2018-12-27T04:52:05.375Z,100.00
2018-12-27T04:54:36.776Z,100.00
2018-12-27T04:57:08.307Z,100.00
2018-12-27T04:59:39.764Z,100.00
2018-12-27T05:02:11.220Z,100.00
2018-12-27T05:04:42.586Z,100.00
2018-12-27T05:07:14.130Z,100.00
2018-12-27T05:09:45.585Z,100.00
2018-12-27T05:12:17.676Z,100.00
2018-12-27T05:14:49.215Z,100.00
2018-12-27T05:17:20.948Z,100.00
2018-12-27T05:19:52.421Z,100.00
2018-12-27T05:22:24.000Z,100.00
2018-12-27T05:24:55.455Z,100.00
2018-12-27T05:27:29.137Z,100.00
2018-12-27T05:30:00.517Z,100.00
2018-12-27T05:32:31.989Z,100.00
2018-12-27T05:35:03.527Z,100.00
2018-12-27T05:37:35.140Z,100.00
2018-12-27T05:40:07.067Z,100.00
2018-12-27T05:42:38.616Z,100.00
2018-12-27T05:45:10.049Z,100.00
2018-12-27T05:47:41.489Z,100.00
2018-12-27T05:50:12.899Z,100.00
2018-12-27T05:52:44.369Z,100.00
2018-12-27T05:55:15.857Z,100.00
2018-12-27T05:57:47.413Z,100.00
2018-12-27T06:00:18.728Z,100.00
2018-12-27T06:02:50.193Z,100.00
2018-12-27T06:05:21.540Z,100.00
2018-12-27T06:07:53.183Z,100.00
2018-12-27T06:10:24.708Z,100.00
2018-12-27T06:12:56.368Z,100.00
2018-12-27T06:15:28.146Z,100.00
2018-12-27T06:17:59.640Z,100.00
2018-12-27T06:20:31.097Z,100.00
2018-12-27T06:23:02.612Z,100.00
2018-12-27T06:25:34.199Z,100.00
2018-12-27T06:28:05.673Z,100.00
2018-12-27T06:30:37.130Z,100.00
2018-12-27T06:33:08.690Z,100.00
2018-12-27T06:35:40.191Z,100.00
2018-12-27T06:38:11.570Z,100.00
2018-12-27T06:40:43.097Z,100.00
2018-12-27T06:43:14.663Z,100.00
2018-12-27T06:45:46.129Z,100.00
2018-12-27T06:48:17.570Z,100.00
2018-12-27T06:50:48.996Z,100.00
2018-12-27T06:53:20.718Z,100.00
2018-12-27T06:55:52.159Z,100.00
2018-12-27T06:58:23.669Z,100.00
2018-12-27T07:00:55.266Z,100.00
2018-12-27T07:03:26.697Z,100.00
2018-12-27T07:05:58.211Z,100.00
2018-12-27T07:08:29.633Z,100.00
2018-12-27T07:11:01.070Z,100.00
2018-12-27T07:13:32.531Z,100.00
2018-12-27T07:16:03.819Z,100.00
2018-12-27T07:18:35.337Z,100.00
2018-12-27T07:21:06.962Z,100.00
2018-12-27T07:23:38.430Z,100.00
2018-12-27T07:26:09.819Z,100.00
2018-12-27T07:28:41.188Z,100.00
2018-12-27T07:31:12.702Z,100.00
2018-12-27T07:33:44.208Z,100.00
2018-12-27T07:36:15.791Z,100.00
2018-12-27T07:38:47.177Z,100.00
2018-12-27T07:41:18.661Z,100.00
2018-12-27T07:43:50.246Z,100.00
2018-12-27T07:46:21.717Z,100.00
2018-12-27T07:48:53.270Z,100.00
2018-12-27T07:51:24.855Z,100.00
2018-12-27T07:53:56.429Z,100.00
2018-12-27T07:56:28.020Z,100.00
2018-12-27T07:58:59.487Z,100.00
2018-12-27T08:01:31.049Z,100.00
2018-12-27T08:04:02.502Z,100.00
2018-12-27T08:06:33.947Z,100.00
2018-12-27T08:09:07.328Z,100.00
2018-12-27T08:11:38.911Z,100.00
2018-12-27T08:14:10.456Z,100.00
2018-12-27T08:16:41.847Z,100.00
2018-12-27T08:19:13.165Z,100.00
2018-12-27T08:21:44.768Z,100.00
2018-12-27T08:24:16.186Z,100.00
2018-12-27T08:26:47.646Z,100.00
2018-12-27T08:29:20.110Z,100.00
2018-12-27T08:31:51.665Z,100.00
2018-12-27T08:34:23.238Z,100.00
2018-12-27T08:36:54.768Z,100.00
2018-12-27T08:39:26.377Z,100.00
2018-12-27T08:41:57.876Z,100.00
2018-12-27T08:44:29.445Z,100.00
2018-12-27T08:47:00.958Z,100.00
2018-12-27T08:49:32.601Z,100.00
2018-12-27T08:52:04.061Z,100.00
2018-12-27T08:54:35.528Z,100.00
2018-12-27T08:57:06.997Z,100.00
2018-12-27T08:59:41.917Z,100.00
2018-12-27T09:02:14.295Z,100.00
2018-12-27T09:04:45.649Z,100.00
2018-12-27T09:07:17.111Z,100.00
2018-12-27T09:09:49.547Z,100.00
2018-12-27T09:12:21.100Z,100.00
2018-12-27T09:14:53.052Z,100.00
2018-12-27T09:17:24.767Z,100.00
2018-12-27T09:19:56.696Z,100.00
2018-12-27T09:25:36.725Z,100.00
2018-12-27T09:28:08.461Z,100.00
2018-12-27T09:30:40.095Z,100.00
2018-12-27T09:33:14.364Z,100.00
2018-12-27T09:35:45.966Z,100.00
2018-12-27T09:38:17.574Z,100.00
2018-12-27T09:40:49.260Z,100.00
2018-12-27T09:43:20.961Z,100.00
2018-12-27T09:45:52.650Z,100.00
2018-12-27T09:48:24.288Z,100.00
2018-12-27T09:50:55.787Z,100.00
2018-12-27T09:53:30.150Z,100.00
2018-12-27T09:56:02.091Z,100.00
2018-12-27T09:58:33.814Z,100.00
2018-12-27T10:01:05.751Z,98.75
2018-12-27T10:03:37.468Z,96.04
2018-12-27T10:06:09.080Z,92.23
2018-12-27T10:08:41.986Z,91.63
2018-12-27T10:11:13.577Z,90.54
2018-12-27T10:13:45.119Z,89.57
2018-12-27T10:16:16.606Z,87.58
2018-12-27T10:18:48.182Z,87.89
2018-12-27T10:21:19.669Z,88.61
2018-12-27T10:23:51.118Z,86.17
2018-12-27T10:26:22.757Z,85.15
2018-12-27T10:28:54.257Z,87.43
2018-12-27T10:31:25.914Z,85.96
2018-12-27T10:33:57.386Z,85.98
2018-12-27T10:36:28.855Z,86.70
2018-12-27T10:39:06.171Z,88.65
2018-12-27T10:41:37.692Z,83.84
2018-12-27T10:44:09.183Z,83.97
2018-12-27T10:46:40.625Z,83.98
2018-12-27T10:49:12.149Z,81.13
2018-12-27T10:51:43.619Z,83.36
2018-12-27T10:54:15.152Z,83.60
2018-12-27T10:56:46.768Z,81.29
2018-12-27T10:59:18.973Z,79.27
2018-12-27T11:01:50.523Z,81.63
2018-12-27T11:04:21.925Z,79.90
2018-12-27T11:06:53.575Z,80.92
2018-12-27T11:09:24.994Z,81.90
2018-12-27T11:11:56.495Z,79.43
2018-12-27T11:14:28.065Z,80.88
2018-12-27T11:16:59.512Z,81.58
2018-12-27T11:19:30.854Z,82.98
2018-12-27T11:22:02.145Z,83.91
2018-12-27T11:24:33.623Z,84.10
2018-12-27T11:27:05.170Z,82.99
2018-12-27T11:29:36.751Z,87.94
2018-12-27T11:32:08.355Z,86.48
2018-12-27T11:34:39.667Z,88.09
2018-12-27T11:37:11.176Z,87.28
2018-12-27T11:39:42.573Z,88.12
2018-12-27T11:42:14.142Z,89.83
2018-12-27T11:44:45.573Z,89.74
2018-12-27T11:47:17.139Z,90.53
2018-12-27T11:49:49.003Z,89.88
2018-12-27T11:52:20.663Z,90.91
2018-12-27T11:54:52.102Z,91.00
2018-12-27T11:57:23.507Z,91.24
2018-12-27T11:59:55.017Z,89.91
2018-12-27T12:02:31.019Z,91.40
2018-12-27T12:04:59.994Z,90.49
2018-12-27T12:07:31.975Z,91.39
2018-12-27T12:10:03.365Z,92.70
2018-12-27T12:12:35.934Z,91.99
2018-12-27T12:15:07.682Z,93.78
2018-12-27T12:17:40.365Z,91.41
2018-12-27T12:20:11.802Z,93.10
2018-12-27T12:22:43.339Z,91.83
2018-12-27T12:25:14.917Z,94.39
2018-12-27T12:27:46.514Z,95.16
2018-12-27T12:30:17.949Z,92.76
2018-12-27T12:32:49.483Z,95.04
2018-12-27T12:35:21.066Z,95.02
2018-12-27T12:37:53.156Z,95.67
2018-12-27T12:40:24.614Z,94.45
2018-12-27T12:42:56.377Z,96.25
2018-12-27T12:45:29.690Z,96.62
2018-12-27T12:48:01.564Z,95.70
2018-12-27T12:50:33.032Z,95.92
2018-12-27T12:53:04.447Z,94.21
2018-12-27T12:55:35.935Z,95.50
2018-12-27T12:58:07.608Z,96.44
2018-12-27T13:00:38.856Z,97.96
2018-12-27T13:03:10.186Z,99.56
2018-12-27T13:05:41.748Z,96.74
2018-12-27T13:08:13.084Z,97.08
2018-12-27T13:10:44.484Z,97.09
2018-12-27T13:13:15.775Z,95.67
2018-12-27T13:15:47.218Z,95.21
2018-12-27T13:18:18.705Z,95.15
2018-12-27T13:20:50.187Z,96.52
2018-12-27T13:23:21.441Z,96.91
2018-12-27T13:25:52.968Z,95.80
2018-12-27T13:28:24.513Z,96.45
2018-12-27T13:30:56.036Z,96.72
2018-12-27T13:33:27.510Z,97.13
2018-12-27T13:35:59.097Z,96.47
2018-12-27T13:38:30.622Z,97.60
2018-12-27T13:41:02.107Z,95.94
2018-12-27T13:43:33.508Z,96.60
2018-12-27T13:46:05.018Z,96.88
2018-12-27T13:48:36.393Z,96.28
2018-12-27T13:51:07.763Z,97.40
2018-12-27T13:53:39.090Z,98.14
2018-12-27T13:56:10.459Z,98.14
2018-12-27T13:58:41.783Z,98.67
2018-12-27T14:01:13.208Z,99.34
2018-12-27T14:03:44.586Z,99.53
2018-12-27T14:06:16.176Z,100.00
2018-12-27T14:08:47.796Z,99.96
2018-12-27T14:11:19.375Z,99.89
2018-12-27T14:13:50.985Z,100.00
2018-12-27T14:16:22.508Z,100.00
2018-12-27T14:18:53.975Z,100.00
2018-12-27T14:21:25.651Z,100.00
2018-12-27T14:23:57.295Z,100.00
2018-12-27T14:26:28.828Z,100.00
2018-12-27T14:29:00.103Z,100.00
2018-12-27T14:31:31.624Z,100.00
2018-12-27T14:34:02.976Z,100.00
2018-12-27T14:36:39.773Z,100.00
2018-12-27T14:39:08.885Z,100.00
2018-12-27T14:41:40.331Z,100.00
2018-12-27T14:44:11.903Z,100.00
2018-12-27T14:46:43.325Z,100.00
2018-12-27T14:49:14.662Z,100.00
2018-12-27T14:51:46.165Z,100.00
2018-12-27T14:54:17.532Z,100.00
2018-12-27T14:56:48.975Z,100.00
2018-12-27T14:59:20.392Z,100.00
2018-12-27T15:01:52.023Z,100.00
2018-12-27T15:04:23.425Z,100.00
2018-12-27T15:06:54.903Z,100.00
2018-12-27T15:09:26.808Z,100.00
2018-12-27T15:11:58.772Z,100.00
2018-12-27T15:14:30.175Z,100.00
2018-12-27T15:17:01.687Z,100.00
2018-12-27T15:19:33.138Z,100.00
2018-12-27T15:22:04.584Z,100.00
2018-12-27T15:24:36.116Z,100.00
2018-12-27T15:27:07.453Z,100.00
2018-12-27T15:29:38.925Z,100.00
2018-12-27T15:32:10.284Z,100.00
2018-12-27T15:34:41.695Z,100.00
2018-12-27T15:37:13.118Z,100.00
2018-12-27T15:39:44.508Z,100.00
2018-12-27T15:42:15.952Z,100.00
2018-12-27T15:44:47.433Z,100.00
2018-12-27T15:47:18.919Z,100.00
2018-12-27T15:49:50.436Z,100.00
2018-12-27T15:52:21.843Z,100.00
2018-12-27T15:54:53.225Z,100.00
2018-12-27T15:57:24.655Z,100.00
2018-12-27T15:59:56.199Z,100.00
2018-12-27T16:02:27.676Z,100.00
2018-12-27T16:04:59.184Z,100.00
2018-12-27T16:07:30.760Z,100.00
2018-12-27T16:10:02.392Z,100.00
2018-12-27T16:12:33.993Z,100.00
2018-12-27T16:15:05.545Z,100.00
2018-12-27T16:17:36.892Z,100.00
2018-12-27T16:20:08.331Z,100.00
2018-12-27T16:22:39.767Z,100.00
2018-12-27T16:25:11.195Z,100.00
2018-12-27T16:27:42.706Z,100.00
2018-12-27T16:30:14.104Z,100.00
2018-12-27T16:32:45.448Z,100.00
2018-12-27T16:35:17.020Z,100.00
2018-12-27T16:37:48.473Z,100.00
2018-12-27T16:40:20.145Z,100.00
2018-12-27T16:42:51.855Z,100.00
2018-12-27T16:45:23.326Z,100.00
2018-12-27T16:47:54.763Z,100.00
2018-12-27T16:50:26.247Z,100.00
2018-12-27T16:52:57.765Z,100.00
2018-12-27T16:55:29.288Z,100.00
2018-12-27T16:58:00.831Z,100.00
2018-12-27T17:00:32.518Z,100.00
2018-12-27T17:03:03.998Z,100.00
2018-12-27T17:05:35.595Z,100.00
2018-12-27T17:08:06.976Z,100.00
2018-12-27T17:10:41.506Z,100.00
2018-12-27T17:13:12.998Z,100.00
2018-12-27T17:15:44.586Z,100.00
2018-12-27T17:18:16.013Z,100.00
2018-12-27T17:20:47.466Z,100.00
2018-12-27T17:23:18.921Z,100.00
2018-12-27T17:25:50.367Z,100.00
2018-12-27T17:28:21.824Z,100.00
2018-12-27T17:30:53.254Z,100.00
2018-12-27T17:33:24.816Z,100.00
2018-12-27T17:35:56.274Z,100.00
2018-12-27T17:38:27.836Z,100.00
2018-12-27T17:40:59.251Z,100.00
2018-12-27T17:43:30.704Z,100.00
2018-12-27T17:46:02.159Z,100.00
2018-12-27T17:48:33.597Z,100.00
2018-12-27T17:51:05.069Z,100.00
2018-12-27T17:53:36.527Z,100.00
2018-12-27T17:56:08.015Z,100.00
2018-12-27T17:58:39.545Z,100.00
2018-12-27T18:01:11.062Z,100.00
2018-12-27T18:03:42.602Z,100.00
2018-12-27T18:06:14.067Z,100.00
2018-12-27T18:08:45.505Z,100.00
2018-12-27T18:11:16.925Z,100.00
2018-12-27T18:13:48.567Z,100.00
2018-12-27T18:16:20.278Z,100.00
2018-12-27T18:18:51.902Z,100.00
2018-12-27T18:21:23.285Z,100.00
2018-12-27T18:23:54.735Z,100.00
2018-12-27T18:26:26.189Z,100.00
2018-12-27T18:28:57.577Z,100.00
2018-12-27T18:31:29.142Z,100.00
2018-12-27T18:34:00.655Z,100.00
2018-12-27T18:36:33.555Z,100.00
2018-12-27T18:39:06.065Z,100.00
2018-12-27T18:41:37.679Z,100.00
2018-12-27T18:44:09.103Z,100.00
2018-12-27T18:46:40.536Z,100.00
2018-12-27T18:49:11.943Z,100.00
2018-12-27T18:51:43.256Z,100.00
2018-12-27T18:54:16.905Z,100.00
2018-12-27T18:56:48.387Z,100.00
2018-12-27T18:59:19.889Z,100.00
2018-12-27T19:01:51.253Z,100.00
2018-12-27T19:04:22.763Z,100.00
2018-12-27T19:06:54.189Z,100.00
2018-12-27T19:09:25.678Z,100.00
2018-12-27T19:12:31.755Z,100.00
2018-12-27T19:15:09.262Z,100.00
2018-12-27T19:17:47.186Z,100.00
2018-12-27T19:20:18.689Z,100.00
2018-12-27T19:23:21.023Z,100.00
2018-12-27T19:25:52.427Z,100.00
2018-12-27T19:28:23.907Z,100.00
2018-12-27T19:30:55.414Z,100.00
2018-12-27T19:33:27.033Z,100.00
2018-12-27T19:35:58.478Z,100.00
2018-12-27T19:38:31.083Z,100.00
2018-12-27T19:41:02.636Z,100.00
2018-12-27T19:43:34.046Z,100.00
2018-12-27T19:46:05.526Z,100.00
2018-12-27T19:48:37.116Z,100.00
2018-12-27T19:51:08.696Z,100.00
2018-12-27T19:53:40.229Z,100.00
2018-12-27T19:56:11.600Z,100.00
2018-12-27T19:58:43.098Z,100.00
2018-12-27T20:01:14.671Z,100.00
2018-12-27T20:03:46.099Z,100.00
2018-12-27T20:06:17.591Z,100.00
2018-12-27T20:08:49.008Z,100.00
2018-12-27T20:11:20.446Z,100.00
2018-12-27T20:13:51.781Z,100.00
2018-12-27T20:16:24.411Z,100.00
2018-12-27T20:18:55.866Z,100.00
2018-12-27T20:21:27.340Z,100.00
2018-12-27T20:23:58.888Z,100.00
2018-12-27T20:26:30.454Z,100.00
2018-12-27T20:29:01.984Z,100.00
2018-12-27T20:31:33.621Z,100.00
2018-12-27T20:34:05.044Z,100.00
2018-12-27T20:36:38.159Z,100.00
2018-12-27T20:39:09.794Z,100.00
2018-12-27T20:41:41.306Z,100.00
2018-12-27T20:44:12.825Z,100.00
2018-12-27T20:46:44.304Z,100.00
2018-12-27T20:49:15.739Z,100.00
2018-12-27T20:51:47.174Z,100.00
2018-12-27T20:54:18.640Z,100.00
2018-12-27T20:56:50.168Z,100.00
2018-12-27T20:59:21.658Z,100.00
2018-12-27T21:01:53.234Z,100.00
2018-12-27T21:04:24.668Z,100.00
2018-12-27T21:06:56.164Z,100.00
2018-12-27T21:09:27.713Z,100.00
2018-12-27T21:11:59.190Z,100.00
2018-12-27T21:14:30.565Z,100.00
2018-12-27T21:17:01.996Z,100.00
2018-12-27T21:19:33.386Z,100.00
2018-12-27T21:22:04.856Z,100.00
2018-12-27T21:24:36.297Z,100.00
2018-12-27T21:27:07.868Z,100.00
2018-12-27T21:29:39.345Z,100.00
2018-12-27T21:32:10.839Z,100.00
2018-12-27T21:34:42.218Z,100.00
2018-12-27T21:37:13.865Z,100.00
2018-12-27T21:39:45.156Z,100.00
2018-12-27T21:42:31.708Z,100.00
2018-12-27T21:45:43.421Z,100.00
2018-12-27T21:48:13.341Z,100.00
2018-12-27T21:50:44.707Z,100.00
2018-12-27T21:53:16.007Z,100.00
2018-12-27T21:55:47.448Z,100.00
2018-12-27T21:58:18.743Z,100.00
2018-12-27T22:00:50.058Z,100.00
2018-12-27T22:03:21.654Z,100.00
2018-12-27T22:05:53.056Z,100.00
2018-12-27T22:08:28.436Z,100.00
2018-12-27T22:10:57.698Z,100.00
2018-12-27T22:13:31.524Z,100.00
2018-12-27T22:16:02.937Z,100.00
2018-12-27T22:18:34.516Z,100.00
2018-12-27T22:21:06.106Z,100.00
2018-12-27T22:23:37.589Z,100.00
2018-12-27T22:26:09.344Z,100.00
2018-12-27T22:28:40.814Z,100.00
2018-12-27T22:31:12.284Z,100.00
2018-12-27T22:33:43.552Z,100.00
2018-12-27T22:36:14.910Z,100.00
2018-12-27T22:38:46.385Z,100.00
2018-12-27T22:41:17.964Z,100.00
2018-12-27T22:43:49.353Z,100.00
2018-12-27T22:46:20.889Z,100.00
2018-12-27T22:48:52.296Z,100.00
2018-12-27T22:51:23.830Z,100.00
2018-12-27T22:53:55.402Z,100.00
2018-12-27T22:56:33.268Z,100.00
2018-12-27T22:59:16.304Z,100.00
2018-12-27T23:05:42.018Z,100.00
2018-12-27T23:08:30.323Z,100.00
2018-12-27T23:14:19.635Z,100.00
2018-12-27T23:16:52.605Z,100.00
2018-12-27T23:19:24.008Z,100.00
2018-12-27T23:21:55.519Z,100.00
2018-12-27T23:24:40.657Z,100.00
2018-12-27T23:27:27.664Z,100.00
2018-12-27T23:31:01.944Z,100.00
2018-12-27T23:34:10.023Z,100.00
2018-12-27T23:37:29.634Z,100.00
2018-12-27T23:40:01.236Z,100.00
2018-12-27T23:42:32.698Z,100.00
2018-12-27T23:45:05.809Z,100.00
2018-12-27T23:48:12.026Z,100.00
2018-12-27T23:50:43.579Z,100.00
2018-12-27T23:53:25.466Z,100.00
2018-12-27T23:55:56.886Z,100.00
2018-12-27T23:58:28.366Z,100.00
